createdAt,value
2023-10-13T00:00:42.744Z,11.14
2023-10-13T00:03:16.285Z,11.08
2023-10-13T00:05:44.220Z,11.06
2023-10-13T00:08:11.108Z,11.04
2023-10-13T00:10:37.933Z,11.03
2023-10-13T00:13:13.430Z,11.02
2023-10-13T00:15:58.713Z,11.04
2023-10-13T00:18:34.920Z,11.13
2023-10-13T00:21:13.350Z,11.15
2023-10-13T00:23:53.780Z,11.16
2023-10-13T00:26:37.132Z,11.17
2023-10-13T00:29:17.261Z,11.18
2023-10-13T00:31:45.270Z,11.21
2023-10-13T00:34:33.693Z,11.19
2023-10-13T00:37:17.885Z,11.20
2023-10-13T00:39:47.247Z,11.21
2023-10-13T00:42:31.879Z,11.21
2023-10-13T00:44:59.228Z,11.21
2023-10-13T00:47:41.206Z,11.24
2023-10-13T00:50:12.716Z,11.20
2023-10-13T00:52:42.719Z,11.15
2023-10-13T00:55:10.941Z,11.13
2023-10-13T00:57:38.501Z,11.17
2023-10-13T01:00:13.674Z,11.17
2023-10-13T01:02:40.514Z,11.15
2023-10-13T01:05:11.734Z,11.16
2023-10-13T01:07:38.952Z,11.21
2023-10-13T01:10:14.270Z,11.19
2023-10-13T01:12:43.602Z,11.19
2023-10-13T01:15:12.439Z,11.21
2023-10-13T01:17:39.022Z,11.20
2023-10-13T01:20:06.335Z,11.24
2023-10-13T01:22:33.695Z,11.29
2023-10-13T01:25:11.880Z,11.37
2023-10-13T01:27:42.284Z,11.40
2023-10-13T01:30:23.955Z,11.40
2023-10-13T01:32:52.289Z,11.37
2023-10-13T01:35:37.286Z,11.40
2023-10-13T01:38:04.233Z,11.23
2023-10-13T01:40:34.810Z,11.26
2023-10-13T01:43:02.636Z,11.41
2023-10-13T01:45:32.454Z,11.46
2023-10-13T01:47:59.110Z,11.39
2023-10-13T01:50:31.481Z,11.36
2023-10-13T01:53:12.801Z,11.42
2023-10-13T01:55:45.391Z,11.54
2023-10-13T01:58:19.757Z,11.53
2023-10-13T02:00:48.901Z,11.51
2023-10-13T02:03:17.606Z,11.50
2023-10-13T02:05:49.115Z,11.49
2023-10-13T02:08:34.518Z,11.48
2023-10-13T02:11:02.434Z,11.41
2023-10-13T02:13:30.797Z,11.35
2023-10-13T02:15:58.944Z,11.11
2023-10-13T02:18:29.201Z,10.90
2023-10-13T02:20:57.996Z,10.83
2023-10-13T02:23:26.189Z,10.80
2023-10-13T02:26:01.832Z,10.76
2023-10-13T02:28:34.557Z,10.77
2023-10-13T02:31:05.802Z,10.65
2023-10-13T02:33:32.864Z,10.54
2023-10-13T02:36:06.244Z,10.53
2023-10-13T02:38:35.798Z,10.52
2023-10-13T02:41:09.197Z,10.58
2023-10-13T02:43:36.296Z,10.66
2023-10-13T02:46:04.029Z,10.62
2023-10-13T02:48:43.443Z,10.61
2023-10-13T02:51:17.644Z,10.61
2023-10-13T02:53:51.283Z,10.68
2023-10-13T02:56:24.110Z,10.71
2023-10-13T02:58:57.676Z,10.72
2023-10-13T03:01:31.498Z,10.75
2023-10-13T03:03:59.905Z,10.70
2023-10-13T03:06:33.748Z,10.68
2023-10-13T03:09:14.883Z,10.70
2023-10-13T03:11:52.132Z,10.73
2023-10-13T03:14:29.313Z,10.71
2023-10-13T03:17:05.857Z,10.72
2023-10-13T03:19:39.762Z,10.71
2023-10-13T03:22:14.126Z,10.72
2023-10-13T03:24:46.813Z,10.71
2023-10-13T03:27:17.487Z,10.74
2023-10-13T03:29:45.805Z,10.77
2023-10-13T03:32:16.885Z,10.82
2023-10-13T03:35:02.970Z,10.82
2023-10-13T03:37:42.079Z,10.84
2023-10-13T03:40:20.805Z,10.85
2023-10-13T03:43:13.483Z,10.84
2023-10-13T03:45:49.684Z,10.84
2023-10-13T03:48:26.630Z,10.80
2023-10-13T03:51:11.622Z,10.80
2023-10-13T03:53:55.269Z,10.77
2023-10-13T03:56:32.430Z,10.83
2023-10-13T03:59:07.342Z,10.80
2023-10-13T04:01:47.062Z,10.79
2023-10-13T04:04:16.610Z,10.80
2023-10-13T04:06:49.184Z,10.86
2023-10-13T04:09:31.551Z,10.90
2023-10-13T04:12:04.167Z,10.99
2023-10-13T04:14:57.021Z,11.08
2023-10-13T04:17:24.196Z,11.11
2023-10-13T04:20:08.028Z,11.06
2023-10-13T04:22:48.609Z,10.91
2023-10-13T04:25:37.127Z,10.78
2023-10-13T04:28:15.123Z,10.56
2023-10-13T04:30:58.717Z,10.45
2023-10-13T04:33:33.073Z,10.50
2023-10-13T04:36:25.630Z,10.59
2023-10-13T04:38:58.185Z,10.63
2023-10-13T04:41:51.465Z,10.61
2023-10-13T04:44:45.102Z,10.68
2023-10-13T04:47:19.512Z,10.70
2023-10-13T04:49:49.197Z,10.79
2023-10-13T04:52:33.986Z,10.88
2023-10-13T04:55:23.691Z,10.91
2023-10-13T04:58:01.567Z,10.94
2023-10-13T05:00:47.063Z,10.90
2023-10-13T05:03:39.878Z,10.81
2023-10-13T05:06:26.419Z,10.87
2023-10-13T05:09:11.196Z,10.89
2023-10-13T05:11:56.195Z,10.88
2023-10-13T05:14:41.337Z,10.87
2023-10-13T05:17:26.578Z,10.92
2023-10-13T05:20:17.631Z,10.93
2023-10-13T05:23:04.457Z,10.92
2023-10-13T05:25:49.555Z,10.91
2023-10-13T05:28:37.941Z,10.87
2023-10-13T05:31:23.304Z,10.83
2023-10-13T05:34:08.503Z,10.86
2023-10-13T05:36:53.941Z,10.91
2023-10-13T05:39:39.092Z,10.94
2023-10-13T05:42:24.347Z,10.91
2023-10-13T05:45:09.722Z,10.91
2023-10-13T05:47:45.107Z,11.03
2023-10-13T05:50:21.142Z,11.09
2023-10-13T05:52:57.281Z,11.23
2023-10-13T05:55:45.628Z,11.19
2023-10-13T05:58:31.072Z,11.13
2023-10-13T06:01:17.317Z,11.10
2023-10-13T06:04:03.158Z,11.21
2023-10-13T06:06:48.169Z,11.28
2023-10-13T06:09:35.096Z,11.31
2023-10-13T06:12:20.298Z,11.43
2023-10-13T06:15:06.730Z,11.72
2023-10-13T06:17:52.102Z,11.85
2023-10-13T06:20:37.548Z,11.82
2023-10-13T06:23:22.764Z,11.72
2023-10-13T06:26:11.487Z,11.71
2023-10-13T06:28:44.569Z,11.81
2023-10-13T06:31:26.935Z,11.82
2023-10-13T06:33:56.609Z,11.89
2023-10-13T06:36:23.554Z,11.91
2023-10-13T06:39:19.164Z,12.04
2023-10-13T06:41:45.887Z,12.20
2023-10-13T06:44:17.109Z,12.25
2023-10-13T06:46:44.786Z,12.42
2023-10-13T06:49:13.971Z,12.50
2023-10-13T06:51:40.554Z,12.55
2023-10-13T06:54:12.751Z,12.62
2023-10-13T06:56:41.042Z,12.74
2023-10-13T06:59:08.087Z,12.80
2023-10-13T07:01:41.940Z,12.89
2023-10-13T07:04:15.757Z,12.97
2023-10-13T07:06:48.950Z,12.98
2023-10-13T07:09:37.172Z,12.97
2023-10-13T07:12:07.659Z,12.92
2023-10-13T07:14:34.860Z,12.92
2023-10-13T07:17:05.902Z,12.96
2023-10-13T07:19:37.375Z,13.02
2023-10-13T07:22:23.011Z,13.14
2023-10-13T07:24:51.496Z,13.58
2023-10-13T07:27:24.824Z,13.81
2023-10-13T07:30:14.359Z,13.98
2023-10-13T07:32:48.236Z,14.10
2023-10-13T07:35:24.092Z,14.13
2023-10-13T07:37:53.722Z,14.22
2023-10-13T07:40:27.767Z,14.34
2023-10-13T07:43:10.521Z,14.46
2023-10-13T07:45:38.662Z,14.50
2023-10-13T07:48:19.999Z,14.60
2023-10-13T07:50:47.746Z,14.72
2023-10-13T07:53:21.327Z,14.76
2023-10-13T07:55:57.270Z,14.96
2023-10-13T07:58:26.311Z,15.13
2023-10-13T08:01:16.086Z,15.25
2023-10-13T08:03:46.092Z,15.41
2023-10-13T08:06:20.631Z,15.47
2023-10-13T08:08:51.300Z,15.63
2023-10-13T08:11:24.459Z,15.76
2023-10-13T08:14:04.273Z,15.86
2023-10-13T08:16:46.668Z,16.00
2023-10-13T08:19:18.094Z,16.05
2023-10-13T08:22:15.536Z,16.21
2023-10-13T08:24:42.173Z,16.11
2023-10-13T08:27:15.291Z,16.31
2023-10-13T08:30:14.879Z,16.54
2023-10-13T08:32:55.816Z,16.73
2023-10-13T08:35:31.963Z,16.97
2023-10-13T08:38:18.739Z,16.94
2023-10-13T08:41:10.166Z,17.01
2023-10-13T08:43:52.433Z,17.16
2023-10-13T08:46:29.647Z,17.22
2023-10-13T08:49:06.220Z,17.36
2023-10-13T08:51:44.945Z,17.48
2023-10-13T08:54:34.725Z,17.52
2023-10-13T08:57:20.996Z,17.42
2023-10-13T08:59:54.402Z,17.66
2023-10-13T09:02:44.277Z,17.82
2023-10-13T09:05:31.821Z,18.13
2023-10-13T09:08:09.409Z,18.51
2023-10-13T09:10:45.627Z,18.75
2023-10-13T09:13:20.207Z,18.73
2023-10-13T09:16:02.453Z,18.82
2023-10-13T09:18:48.628Z,19.11
2023-10-13T09:21:44.784Z,19.25
2023-10-13T09:24:33.170Z,19.12
2023-10-13T09:27:02.788Z,19.33
2023-10-13T09:29:30.412Z,19.43
2023-10-13T09:32:05.442Z,19.64
2023-10-13T09:34:41.720Z,19.70
2023-10-13T09:37:14.446Z,19.97
2023-10-13T09:39:43.013Z,20.34
2023-10-13T09:42:12.283Z,20.49
2023-10-13T09:44:41.978Z,20.64
2023-10-13T09:47:18.995Z,20.81
2023-10-13T09:49:47.004Z,20.92
2023-10-13T09:52:26.367Z,21.12
2023-10-13T09:55:12.727Z,21.35
2023-10-13T09:57:45.940Z,21.73
2023-10-13T10:00:45.566Z,21.99
2023-10-13T10:03:31.335Z,22.05
2023-10-13T10:06:06.218Z,22.11
2023-10-13T10:08:39.844Z,22.06
2023-10-13T10:11:21.768Z,22.06
2023-10-13T10:14:14.171Z,22.02
2023-10-13T10:17:02.639Z,22.10
2023-10-13T10:19:31.526Z,22.07
2023-10-13T10:22:17.891Z,22.17
2023-10-13T10:24:45.257Z,22.23
2023-10-13T10:27:17.909Z,22.23
2023-10-13T10:29:55.167Z,22.17
2023-10-13T10:32:21.888Z,21.91
2023-10-13T10:34:48.678Z,21.74
2023-10-13T10:37:17.309Z,21.89
2023-10-13T10:39:46.945Z,22.02
2023-10-13T10:42:19.928Z,22.11
2023-10-13T10:44:48.559Z,22.27
2023-10-13T10:47:32.633Z,22.32
2023-10-13T10:50:08.717Z,22.47
2023-10-13T10:52:40.425Z,22.69
2023-10-13T10:55:14.319Z,22.96
2023-10-13T10:57:44.440Z,22.93
2023-10-13T11:00:21.154Z,22.96
2023-10-13T11:02:58.255Z,23.09
2023-10-13T11:05:33.730Z,23.30
2023-10-13T11:08:04.891Z,23.24
2023-10-13T11:10:33.020Z,23.10
2023-10-13T11:13:14.634Z,23.29
2023-10-13T11:15:47.606Z,23.09
2023-10-13T11:18:23.760Z,23.12
2023-10-13T11:20:55.483Z,23.18
2023-10-13T11:23:26.717Z,23.21
2023-10-13T11:26:00.901Z,23.10
2023-10-13T11:28:32.749Z,23.00
2023-10-13T11:31:00.822Z,23.06
2023-10-13T11:33:29.825Z,23.04
2023-10-13T11:35:57.977Z,23.16
2023-10-13T11:38:28.557Z,23.35
2023-10-13T11:41:20.749Z,23.48
2023-10-13T11:43:52.528Z,23.63
2023-10-13T11:46:39.728Z,23.59
2023-10-13T11:49:17.105Z,23.61
2023-10-13T11:51:48.054Z,23.68
2023-10-13T11:54:19.469Z,23.55
2023-10-13T11:56:46.914Z,23.44
2023-10-13T11:59:20.233Z,23.41
2023-10-13T12:02:05.898Z,23.53
2023-10-13T12:04:42.140Z,23.58
2023-10-13T12:07:18.207Z,23.46
2023-10-13T12:09:58.013Z,23.43
2023-10-13T12:12:26.192Z,23.67
2023-10-13T12:15:10.253Z,23.65
2023-10-13T12:17:37.759Z,23.54
2023-10-13T12:20:12.114Z,23.48
2023-10-13T12:22:52.419Z,23.32
2023-10-13T12:25:34.565Z,23.25
2023-10-13T12:28:19.583Z,23.25
2023-10-13T12:30:55.905Z,23.36
2023-10-13T12:33:25.950Z,23.43
2023-10-13T12:36:22.693Z,23.55
2023-10-13T12:38:49.549Z,23.42
2023-10-13T12:41:36.834Z,23.39
2023-10-13T12:44:26.156Z,23.32
2023-10-13T12:47:12.747Z,23.30
2023-10-13T12:49:48.864Z,23.27
2023-10-13T12:52:21.720Z,23.25
2023-10-13T12:55:08.712Z,23.15
2023-10-13T12:57:35.860Z,23.01
2023-10-13T13:00:17.475Z,23.03
2023-10-13T13:02:44.694Z,22.93
2023-10-13T13:05:14.429Z,22.83
2023-10-13T13:07:48.258Z,22.84
2023-10-13T13:10:18.358Z,22.88
2023-10-13T13:12:44.952Z,22.97
2023-10-13T13:15:13.085Z,22.87
2023-10-13T13:17:40.250Z,22.88
2023-10-13T13:20:27.889Z,22.94
2023-10-13T13:22:56.364Z,22.80
2023-10-13T13:25:27.136Z,22.75
2023-10-13T13:27:53.984Z,22.67
2023-10-13T13:30:22.528Z,22.63
2023-10-13T13:32:49.426Z,22.73
2023-10-13T13:35:19.606Z,22.62
2023-10-13T13:37:46.244Z,22.57
2023-10-13T13:40:16.904Z,22.53
2023-10-13T13:42:44.455Z,22.49
2023-10-13T13:45:33.023Z,22.42
2023-10-13T13:47:59.691Z,22.39
2023-10-13T13:50:30.004Z,22.46
2023-10-13T13:52:59.561Z,22.38
2023-10-13T13:55:30.053Z,22.21
2023-10-13T13:57:57.539Z,22.10
2023-10-13T14:00:40.255Z,22.00
2023-10-13T14:03:13.825Z,21.96
2023-10-13T14:05:44.305Z,21.91
2023-10-13T14:08:13.268Z,21.91
2023-10-13T14:10:58.719Z,21.88
2023-10-13T14:13:45.477Z,21.90
2023-10-13T14:16:17.856Z,21.79
2023-10-13T14:18:49.316Z,21.74
2023-10-13T14:21:19.953Z,21.69
2023-10-13T14:23:47.614Z,21.65
2023-10-13T14:26:26.534Z,21.63
2023-10-13T14:29:01.901Z,21.54
2023-10-13T14:31:29.656Z,21.43
2023-10-13T14:33:56.405Z,21.32
2023-10-13T14:36:22.974Z,21.22
2023-10-13T14:38:52.647Z,21.15
2023-10-13T14:41:20.029Z,21.00
2023-10-13T14:43:49.753Z,20.87
2023-10-13T14:46:17.306Z,20.70
2023-10-13T14:48:45.137Z,20.62
2023-10-13T14:51:14.692Z,20.49
2023-10-13T14:53:44.819Z,20.40
2023-10-13T14:56:15.332Z,20.28
2023-10-13T14:58:46.023Z,20.17
2023-10-13T15:01:17.141Z,20.05
2023-10-13T15:03:51.276Z,19.95
2023-10-13T15:06:36.234Z,19.87
2023-10-13T15:09:05.065Z,19.77
2023-10-13T15:11:47.042Z,19.68
2023-10-13T15:14:15.801Z,19.58
2023-10-13T15:16:44.400Z,19.48
2023-10-13T15:19:11.370Z,19.32
2023-10-13T15:21:37.981Z,19.21
2023-10-13T15:24:25.208Z,19.08
2023-10-13T15:27:02.850Z,18.95
2023-10-13T15:29:36.974Z,18.73
2023-10-13T15:32:27.956Z,18.55
2023-10-13T15:34:55.590Z,18.38
2023-10-13T15:37:26.411Z,18.23
2023-10-13T15:39:53.789Z,18.17
2023-10-13T15:42:22.350Z,18.08
2023-10-13T15:44:49.817Z,17.96
2023-10-13T15:49:46.087Z,17.79
2023-10-13T15:52:12.744Z,17.68
2023-10-13T15:54:41.983Z,17.57
2023-10-13T15:57:12.180Z,17.44
2023-10-13T15:59:38.699Z,17.36
2023-10-13T16:02:08.627Z,17.33
2023-10-13T16:04:35.574Z,17.28
2023-10-13T16:07:02.462Z,17.22
2023-10-13T16:09:29.427Z,17.08
2023-10-13T16:11:56.074Z,16.97
2023-10-13T16:14:23.835Z,16.81
2023-10-13T16:16:54.002Z,16.68
2023-10-13T16:19:25.184Z,16.55
2023-10-13T16:21:53.289Z,16.52
2023-10-13T16:24:20.924Z,16.45
2023-10-13T16:26:53.610Z,16.37
2023-10-13T16:29:20.733Z,16.33
2023-10-13T16:31:47.897Z,16.24
2023-10-13T16:34:16.936Z,16.19
2023-10-13T16:36:48.016Z,16.20
2023-10-13T16:39:16.412Z,16.12
2023-10-13T16:41:46.243Z,16.03
2023-10-13T16:44:13.417Z,15.95
2023-10-13T16:46:44.131Z,15.87
2023-10-13T16:49:12.411Z,15.89
2023-10-13T16:51:39.353Z,15.98
2023-10-13T16:54:06.212Z,15.88
2023-10-13T16:56:32.887Z,15.72
2023-10-13T16:58:59.622Z,15.67
2023-10-13T17:01:26.212Z,15.59
2023-10-13T17:03:52.935Z,15.51
2023-10-13T17:06:20.090Z,15.45
2023-10-13T17:08:46.757Z,15.42
2023-10-13T17:11:17.806Z,15.35
2023-10-13T17:13:49.873Z,15.22
2023-10-13T17:16:18.722Z,15.22
2023-10-13T17:18:48.777Z,15.13
2023-10-13T17:21:20.575Z,15.03
2023-10-13T17:23:51.303Z,14.91
2023-10-13T17:26:18.980Z,14.79
2023-10-13T17:28:45.791Z,14.69
2023-10-13T17:31:14.504Z,14.59
2023-10-13T17:33:41.546Z,14.56
2023-10-13T17:36:10.070Z,14.50
2023-10-13T17:38:38.111Z,14.54
2023-10-13T17:41:06.415Z,14.41
2023-10-13T17:43:36.269Z,14.36
2023-10-13T17:46:08.391Z,14.36
2023-10-13T17:48:36.297Z,14.28
2023-10-13T17:51:10.566Z,14.21
2023-10-13T17:53:41.252Z,14.22
2023-10-13T17:56:13.526Z,14.16
2023-10-13T17:58:44.420Z,14.12
2023-10-13T18:01:20.412Z,13.98
2023-10-13T18:03:49.664Z,13.92
2023-10-13T18:06:24.288Z,13.85
2023-10-13T18:08:52.701Z,13.85
2023-10-13T18:11:19.892Z,13.84
2023-10-13T18:13:47.769Z,13.89
2023-10-13T18:16:25.800Z,13.88
2023-10-13T18:18:56.250Z,13.77
2023-10-13T18:21:26.282Z,13.64
2023-10-13T18:23:54.166Z,13.58
2023-10-13T18:26:20.961Z,13.65
2023-10-13T18:28:51.507Z,13.76
2023-10-13T18:31:19.222Z,13.83
2023-10-13T18:33:46.154Z,13.82
2023-10-13T18:36:14.064Z,13.67
2023-10-13T18:38:41.178Z,13.65
2023-10-13T18:41:08.770Z,13.60
2023-10-13T18:43:39.361Z,13.49
2023-10-13T18:46:17.777Z,13.46
2023-10-13T18:48:45.833Z,13.43
2023-10-13T18:51:17.714Z,13.43
2023-10-13T18:53:47.465Z,13.39
2023-10-13T18:56:21.777Z,13.40
2023-10-13T18:58:55.030Z,13.43
2023-10-13T19:01:26.015Z,13.45
2023-10-13T19:03:56.569Z,13.44
2023-10-13T19:06:23.748Z,13.29
2023-10-13T19:08:52.983Z,13.16
2023-10-13T19:11:21.060Z,13.11
2023-10-13T19:13:51.019Z,13.03
2023-10-13T19:16:19.086Z,13.05
2023-10-13T19:18:49.190Z,13.06
2023-10-13T19:21:20.232Z,13.11
2023-10-13T19:23:54.570Z,13.13
2023-10-13T19:26:23.413Z,13.09
2023-10-13T19:28:50.490Z,13.00
2023-10-13T19:31:17.548Z,12.98
2023-10-13T19:33:45.041Z,12.90
2023-10-13T19:36:12.952Z,12.89
2023-10-13T19:38:43.393Z,12.94
2023-10-13T19:41:21.297Z,12.99
2023-10-13T19:43:52.163Z,12.99
2023-10-13T19:46:19.340Z,12.97
2023-10-13T19:48:47.209Z,12.88
2023-10-13T19:51:13.925Z,12.76
2023-10-13T19:53:41.803Z,12.70
2023-10-13T19:56:19.185Z,12.76
2023-10-13T19:58:46.840Z,12.78
2023-10-13T20:01:16.593Z,12.73
2023-10-13T20:03:44.077Z,12.66
2023-10-13T20:06:12.811Z,12.60
2023-10-13T20:08:40.549Z,12.52
2023-10-13T20:11:07.295Z,12.49
2023-10-13T20:13:36.878Z,12.52
2023-10-13T20:16:08.224Z,12.50
2023-10-13T20:18:35.263Z,12.51
2023-10-13T20:21:02.711Z,12.48
2023-10-13T20:23:29.725Z,12.30
2023-10-13T20:25:56.292Z,12.10
2023-10-13T20:28:23.759Z,11.99
2023-10-13T20:30:50.671Z,11.88
2023-10-13T20:33:21.845Z,11.89
2023-10-13T20:35:52.221Z,11.91
2023-10-13T20:38:19.288Z,11.98
2023-10-13T20:40:48.941Z,11.97
2023-10-13T20:43:16.027Z,11.91
2023-10-13T20:45:46.727Z,11.82
2023-10-13T20:48:13.431Z,11.70
2023-10-13T20:50:39.978Z,11.63
2023-10-13T20:53:06.740Z,11.61
2023-10-13T20:55:38.755Z,11.64
2023-10-13T20:58:05.545Z,11.62
2023-10-13T21:00:36.309Z,11.59
2023-10-13T21:03:07.463Z,11.50
2023-10-13T21:05:34.200Z,11.47
2023-10-13T21:08:02.858Z,11.46
2023-10-13T21:10:29.446Z,11.42
2023-10-13T21:12:56.252Z,11.41
2023-10-13T21:15:26.207Z,11.39
2023-10-13T21:17:53.216Z,11.35
2023-10-13T21:20:20.707Z,11.26
2023-10-13T21:22:53.336Z,11.18
2023-10-13T21:25:28.366Z,11.10
2023-10-13T21:27:57.195Z,11.06
2023-10-13T21:30:26.252Z,11.07
2023-10-13T21:32:53.025Z,11.08
2023-10-13T21:35:19.850Z,11.09
2023-10-13T21:37:48.046Z,11.08
2023-10-13T21:40:18.449Z,11.02
2023-10-13T21:42:48.983Z,10.99
2023-10-13T21:45:17.080Z,10.93
2023-10-13T21:47:44.509Z,10.85
2023-10-13T21:50:17.711Z,10.84
2023-10-13T21:52:50.690Z,10.84
2023-10-13T21:55:18.649Z,10.79
2023-10-13T21:57:51.317Z,10.77
2023-10-13T22:00:35.379Z,10.72
2023-10-13T22:03:02.149Z,10.68
2023-10-13T22:05:31.712Z,10.66
2023-10-13T22:07:59.045Z,10.65
2023-10-13T22:10:26.055Z,10.64
2023-10-13T22:12:55.958Z,10.58
2023-10-13T22:15:22.673Z,10.51
2023-10-13T22:17:51.279Z,10.46
2023-10-13T22:20:22.951Z,10.41
2023-10-13T22:22:52.976Z,10.35
2023-10-13T22:25:20.514Z,10.31
2023-10-13T22:27:48.712Z,10.30
2023-10-13T22:30:19.268Z,10.23
2023-10-13T22:32:47.624Z,10.19
2023-10-13T22:35:20.150Z,10.17
2023-10-13T22:37:51.599Z,10.20
2023-10-13T22:40:19.387Z,10.18
2023-10-13T22:42:48.179Z,10.21
2023-10-13T22:45:19.218Z,10.22
2023-10-13T22:47:51.380Z,10.31
2023-10-13T22:50:22.689Z,10.42
2023-10-13T22:52:49.938Z,10.44
2023-10-13T22:55:22.978Z,10.43
2023-10-13T22:57:55.552Z,10.43
2023-10-13T23:00:43.828Z,10.40
2023-10-13T23:03:11.464Z,10.33
2023-10-13T23:05:53.458Z,10.26
2023-10-13T23:08:40.751Z,10.14
2023-10-13T23:11:22.824Z,10.08
2023-10-13T23:13:52.021Z,10.04
2023-10-13T23:16:24.088Z,9.95
2023-10-13T23:19:01.889Z,9.88
2023-10-13T23:21:29.215Z,9.76
2023-10-13T23:23:56.829Z,9.64
2023-10-13T23:26:27.153Z,9.62
2023-10-13T23:28:54.782Z,9.58
2023-10-13T23:31:24.950Z,9.60
2023-10-13T23:33:52.392Z,9.57
2023-10-13T23:36:20.213Z,9.57
2023-10-13T23:38:57.069Z,9.55
2023-10-13T23:41:32.214Z,9.51
2023-10-13T23:43:59.905Z,9.54
2023-10-13T23:46:27.978Z,9.49
2023-10-13T23:48:54.950Z,9.41
2023-10-13T23:51:27.951Z,9.36
2023-10-13T23:53:55.894Z,9.33
2023-10-13T23:56:28.229Z,9.39
2023-10-13T23:59:01.467Z,9.41
